Olga Topic — ELSG4 — position and weather

sailwx.info

Track history (hours):
 
Tides and Currents Weather Stations Pressure Air Temp Water Temp Dewpoint Dewpoint Depression Visibility Wind Speed Wind Dir Waves Ship Positions

Olga Topic

Last reported at 2017-Mar-28 02:25 UTC. Time now 2017-Apr-30 22:36 UTC.
Position N 44°33' E 037°44'.
Warning: this ship's position is 33 days out of date.

Length 186 m; draft 11.1 m.

Type: Cargo ship. MMSI: 636010327.

Date/timePositionNaut miles runAvg speedWind from/ knotsBaromVisibWave heightAir tempDewpointWater temp
2017-Mar-28 02:25N 44°33' E 037°44'8 9.8
2017-Mar-28 01:33N 44°40' E 037°50'4 3.7
2017-Mar-28 00:32N 44°44' E 037°48'0 0.0
2017-Mar-27 23:32N 44°44' E 037°48'0 0.0
2017-Mar-27 22:32N 44°44' E 037°48'0 0.0
2017-Mar-27 21:32N 44°44' E 037°48'0 0.0
2017-Mar-27 20:32N 44°44' E 037°48'0 0.0
2017-Mar-27 19:32N 44°44' E 037°48'0 0.0
2017-Mar-27 18:32N 44°44' E 037°48'0 0.0
2017-Mar-27 17:32N 44°44' E 037°48'0 0.0
2017-Mar-27 16:32N 44°44' E 037°48'0 0.0
2017-Mar-27 15:32N 44°44' E 037°48'0 0.0
2017-Mar-27 14:32N 44°44' E 037°48'0 0.0
2017-Mar-27 13:32N 44°44' E 037°48'0 0.0
2017-Mar-27 12:32N 44°44' E 037°48'0 0.0
2017-Mar-27 11:32N 44°44' E 037°48'0 0.0
2017-Mar-27 10:32N 44°44' E 037°48'0 0.0
2017-Mar-27 09:32N 44°44' E 037°48'0 0.0
2017-Mar-27 08:32N 44°44' E 037°48'0 0.0
2017-Mar-27 07:32N 44°44' E 037°48'0 0.0
2017-Mar-27 06:32N 44°44' E 037°48'0 0.0
2017-Mar-27 05:32N 44°44' E 037°48'0 0.0
2017-Mar-27 04:32N 44°44' E 037°48'0 0.0
2017-Mar-27 03:32N 44°44' E 037°48'0 0.0
2017-Mar-27 02:32N 44°44' E 037°48'0 0.0
2017-Mar-27 01:32N 44°44' E 037°48'0 0.0
2017-Mar-27 00:32N 44°44' E 037°48'0 0.0
2017-Mar-26 23:32N 44°44' E 037°48'0 0.0
2017-Mar-26 22:32N 44°44' E 037°48'0 0.0
2017-Mar-26 21:32N 44°44' E 037°48'0 0.0
2017-Mar-26 20:32N 44°44' E 037°48'0 0.0
2017-Mar-26 19:32N 44°44' E 037°48'0 0.0
2017-Mar-26 18:32N 44°44' E 037°48'0 0.0
2017-Mar-26 17:32N 44°44' E 037°48'0 0.0
2017-Mar-26 16:32N 44°44' E 037°48'0 0.0
2017-Mar-26 15:31N 44°44' E 037°48'0 0.0
2017-Mar-26 14:31N 44°44' E 037°48'0 0.0
2017-Mar-26 13:31N 44°44' E 037°48'0 0.0
2017-Mar-26 12:31N 44°44' E 037°48'0 0.0
2017-Mar-26 11:31N 44°44' E 037°48'0 0.0
2017-Mar-26 10:31N 44°44' E 037°48'0 0.0
2017-Mar-26 09:31N 44°44' E 037°48'0 0.0
2017-Mar-26 08:31N 44°44' E 037°48'0 0.0
2017-Mar-26 07:31N 44°44' E 037°48'0 0.0
2017-Mar-26 06:31N 44°44' E 037°48'0 0.0
2017-Mar-26 05:31N 44°44' E 037°48'0 0.0
2017-Mar-26 04:31N 44°44' E 037°48'0 0.0
2017-Mar-26 03:31N 44°44' E 037°48'0 0.0
2017-Mar-26 02:31N 44°44' E 037°48'0 0.0
2017-Mar-26 01:31N 44°44' E 037°48'0 0.0
2017-Mar-26 00:31N 44°44' E 037°48'0 0.0
2017-Mar-25 23:31N 44°44' E 037°48'0 0.0
2017-Mar-25 22:31N 44°44' E 037°48'0 0.0
2017-Mar-25 21:31N 44°44' E 037°48'3 3.5
2017-Mar-25 20:33N 44°41' E 037°50'6 5.8
2017-Mar-25 19:32N 44°35' E 037°51'11 3.4
2017-Mar-25 16:22N 44°27' E 037°41'1 0.4
2017-Mar-25 14:21N 44°26' E 037°40'1 0.3
2017-Mar-25 10:33N 44°25' E 037°41'0 0.3
2017-Mar-25 09:33N 44°25' E 037°40'0 0.2
2017-Mar-25 08:33N 44°25' E 037°40'1 0.4
2017-Mar-25 05:26N 44°24' E 037°39'1 0.5
2017-Mar-25 04:08N 44°24' E 037°38'11 0.3
2017-Mar-23 19:26N 44°33' E 037°47'6 6.5
2017-Mar-23 18:33N 44°38' E 037°51'8 8.1
2017-Mar-23 17:33N 44°30' E 037°49'  
2017-Mar-20 12:15N 44°15' E 037°49'10 0.5
2017-Mar-19 18:21N 44°23' E 037°42'3 0.2
2017-Mar-19 01:25N 44°23' E 037°37'  
Track history (hours):
 
Tides and Currents Weather Stations Pressure Air Temp Water Temp Dewpoint Dewpoint Depression Visibility Wind Speed Wind Dir Waves Ship Positions

Olga Topic

Last reported at 2017-Mar-28 02:25 UTC. Time now 2017-Apr-30 22:36 UTC.
Position N 44°33' E 037°44'.
Warning: this ship's position is 33 days out of date.

Length 186 m; draft 11.1 m.

Type: Cargo ship. MMSI: 636010327.

Date/timePositionNaut miles runAvg speedWind from/ knotsBaromVisibWave heightAir tempDewpointWater temp
2017-Mar-28 02:25N 44°33' E 037°44'8 9.8
2017-Mar-28 01:33N 44°40' E 037°50'4 3.7
2017-Mar-28 00:32N 44°44' E 037°48'0 0.0
2017-Mar-27 23:32N 44°44' E 037°48'0 0.0
2017-Mar-27 22:32N 44°44' E 037°48'0 0.0
2017-Mar-27 21:32N 44°44' E 037°48'0 0.0
2017-Mar-27 20:32N 44°44' E 037°48'0 0.0
2017-Mar-27 19:32N 44°44' E 037°48'0 0.0
2017-Mar-27 18:32N 44°44' E 037°48'0 0.0
2017-Mar-27 17:32N 44°44' E 037°48'0 0.0
2017-Mar-27 16:32N 44°44' E 037°48'0 0.0
2017-Mar-27 15:32N 44°44' E 037°48'0 0.0
2017-Mar-27 14:32N 44°44' E 037°48'0 0.0
2017-Mar-27 13:32N 44°44' E 037°48'0 0.0
2017-Mar-27 12:32N 44°44' E 037°48'0 0.0
2017-Mar-27 11:32N 44°44' E 037°48'0 0.0
2017-Mar-27 10:32N 44°44' E 037°48'0 0.0
2017-Mar-27 09:32N 44°44' E 037°48'0 0.0
2017-Mar-27 08:32N 44°44' E 037°48'0 0.0
2017-Mar-27 07:32N 44°44' E 037°48'0 0.0
2017-Mar-27 06:32N 44°44' E 037°48'0 0.0
2017-Mar-27 05:32N 44°44' E 037°48'0 0.0
2017-Mar-27 04:32N 44°44' E 037°48'0 0.0
2017-Mar-27 03:32N 44°44' E 037°48'0 0.0
2017-Mar-27 02:32N 44°44' E 037°48'0 0.0
2017-Mar-27 01:32N 44°44' E 037°48'0 0.0
2017-Mar-27 00:32N 44°44' E 037°48'0 0.0
2017-Mar-26 23:32N 44°44' E 037°48'0 0.0
2017-Mar-26 22:32N 44°44' E 037°48'0 0.0
2017-Mar-26 21:32N 44°44' E 037°48'0 0.0
2017-Mar-26 20:32N 44°44' E 037°48'0 0.0
2017-Mar-26 19:32N 44°44' E 037°48'0 0.0
2017-Mar-26 18:32N 44°44' E 037°48'0 0.0
2017-Mar-26 17:32N 44°44' E 037°48'0 0.0
2017-Mar-26 16:32N 44°44' E 037°48'0 0.0
2017-Mar-26 15:31N 44°44' E 037°48'0 0.0
2017-Mar-26 14:31N 44°44' E 037°48'0 0.0
2017-Mar-26 13:31N 44°44' E 037°48'0 0.0
2017-Mar-26 12:31N 44°44' E 037°48'0 0.0
2017-Mar-26 11:31N 44°44' E 037°48'0 0.0
2017-Mar-26 10:31N 44°44' E 037°48'0 0.0
2017-Mar-26 09:31N 44°44' E 037°48'0 0.0
2017-Mar-26 08:31N 44°44' E 037°48'0 0.0
2017-Mar-26 07:31N 44°44' E 037°48'0 0.0
2017-Mar-26 06:31N 44°44' E 037°48'0 0.0
2017-Mar-26 05:31N 44°44' E 037°48'0 0.0
2017-Mar-26 04:31N 44°44' E 037°48'0 0.0
2017-Mar-26 03:31N 44°44' E 037°48'0 0.0
2017-Mar-26 02:31N 44°44' E 037°48'0 0.0
2017-Mar-26 01:31N 44°44' E 037°48'0 0.0
2017-Mar-26 00:31N 44°44' E 037°48'0 0.0
2017-Mar-25 23:31N 44°44' E 037°48'0 0.0
2017-Mar-25 22:31N 44°44' E 037°48'0 0.0
2017-Mar-25 21:31N 44°44' E 037°48'3 3.5
2017-Mar-25 20:33N 44°41' E 037°50'6 5.8
2017-Mar-25 19:32N 44°35' E 037°51'11 3.4
2017-Mar-25 16:22N 44°27' E 037°41'1 0.4
2017-Mar-25 14:21N 44°26' E 037°40'1 0.3
2017-Mar-25 10:33N 44°25' E 037°41'0 0.3
2017-Mar-25 09:33N 44°25' E 037°40'0 0.2
2017-Mar-25 08:33N 44°25' E 037°40'1 0.4
2017-Mar-25 05:26N 44°24' E 037°39'1 0.5
2017-Mar-25 04:08N 44°24' E 037°38'11 0.3
2017-Mar-23 19:26N 44°33' E 037°47'6 6.5
2017-Mar-23 18:33N 44°38' E 037°51'8 8.1
2017-Mar-23 17:33N 44°30' E 037°49'  
2017-Mar-20 12:15N 44°15' E 037°49'10 0.5
2017-Mar-19 18:21N 44°23' E 037°42'3 0.2
2017-Mar-19 01:25N 44°23' E 037°37'  

Dump ship's entire track history